sensor_id;sensor_type;location;lat;lon;timestamp;P1;durP1;ratioP1;P2;durP2;ratioP2
52067;SDS011;60237;52.338;21.228;2023-02-28T00:01:21;144.27;;;42.63;;
52067;SDS011;60237;52.338;21.228;2023-02-28T00:03:48;127.97;;;41.13;;
52067;SDS011;60237;52.338;21.228;2023-02-28T00:06:15;133.82;;;41.58;;
52067;SDS011;60237;52.338;21.228;2023-02-28T00:08:41;175.75;;;43.30;;
52067;SDS011;60237;52.338;21.228;2023-02-28T00:11:10;117.45;;;38.40;;
52067;SDS011;60237;52.338;21.228;2023-02-28T00:13:38;127.38;;;35.85;;
52067;SDS011;60237;52.338;21.228;2023-02-28T00:16:06;117.70;;;36.67;;
52067;SDS011;60237;52.338;21.228;2023-02-28T00:18:33;131.45;;;36.97;;
52067;SDS011;60237;52.338;21.228;2023-02-28T00:20:59;142.82;;;38.13;;
52067;SDS011;60237;52.338;21.228;2023-02-28T00:23:26;132.32;;;36.00;;
52067;SDS011;60237;52.338;21.228;2023-02-28T00:25:53;131.55;;;37.97;;
52067;SDS011;60237;52.338;21.228;2023-02-28T00:28:19;135.70;;;37.55;;
52067;SDS011;60237;52.338;21.228;2023-02-28T00:30:46;118.22;;;36.25;;
52067;SDS011;60237;52.338;21.228;2023-02-28T00:33:13;114.95;;;33.95;;
52067;SDS011;60237;52.338;21.228;2023-02-28T00:35:39;132.88;;;37.25;;
52067;SDS011;60237;52.338;21.228;2023-02-28T00:38:08;109.50;;;34.83;;
52067;SDS011;60237;52.338;21.228;2023-02-28T00:40:34;97.45;;;33.25;;
52067;SDS011;60237;52.338;21.228;2023-02-28T00:43:01;119.05;;;32.65;;
52067;SDS011;60237;52.338;21.228;2023-02-28T00:45:27;90.28;;;31.58;;
52067;SDS011;60237;52.338;21.228;2023-02-28T00:47:56;102.05;;;33.83;;
52067;SDS011;60237;52.338;21.228;2023-02-28T00:50:22;132.38;;;33.47;;
52067;SDS011;60237;52.338;21.228;2023-02-28T00:52:49;93.93;;;28.00;;
52067;SDS011;60237;52.338;21.228;2023-02-28T00:55:15;76.32;;;25.70;;
52067;SDS011;60237;52.338;21.228;2023-02-28T00:57:42;99.22;;;27.15;;
52067;SDS011;60237;52.338;21.228;2023-02-28T01:00:08;82.78;;;25.27;;
52067;SDS011;60237;52.338;21.228;2023-02-28T01:02:35;87.85;;;24.80;;
52067;SDS011;60237;52.338;21.228;2023-02-28T01:05:02;74.72;;;24.67;;
52067;SDS011;60237;52.338;21.228;2023-02-28T01:07:29;74.50;;;23.92;;
52067;SDS011;60237;52.338;21.228;2023-02-28T01:09:55;81.65;;;23.35;;
52067;SDS011;60237;52.338;21.228;2023-02-28T01:12:23;88.43;;;24.83;;
52067;SDS011;60237;52.338;21.228;2023-02-28T01:14:50;82.28;;;24.48;;
52067;SDS011;60237;52.338;21.228;2023-02-28T01:17:16;73.88;;;23.23;;
52067;SDS011;60237;52.338;21.228;2023-02-28T01:19:43;85.43;;;24.48;;
52067;SDS011;60237;52.338;21.228;2023-02-28T01:22:09;87.22;;;23.88;;
52067;SDS011;60237;52.338;21.228;2023-02-28T01:24:36;63.97;;;21.05;;
52067;SDS011;60237;52.338;21.228;2023-02-28T01:27:05;75.75;;;23.38;;
52067;SDS011;60237;52.338;21.228;2023-02-28T01:29:31;95.57;;;23.75;;
52067;SDS011;60237;52.338;21.228;2023-02-28T01:31:58;85.25;;;27.48;;
52067;SDS011;60237;52.338;21.228;2023-02-28T01:34:25;93.28;;;29.35;;
52067;SDS011;60237;52.338;21.228;2023-02-28T01:36:52;96.40;;;26.70;;
52067;SDS011;60237;52.338;21.228;2023-02-28T01:39:18;77.43;;;26.30;;
52067;SDS011;60237;52.338;21.228;2023-02-28T01:41:45;99.22;;;28.63;;
52067;SDS011;60237;52.338;21.228;2023-02-28T01:46:57;87.93;;;26.75;;
52067;SDS011;60237;52.338;21.228;2023-02-28T01:49:23;91.38;;;25.27;;
52067;SDS011;60237;52.338;21.228;2023-02-28T01:51:53;87.50;;;24.85;;
52067;SDS011;60237;52.338;21.228;2023-02-28T01:54:22;116.20;;;28.90;;
52067;SDS011;60237;52.338;21.228;2023-02-28T01:56:52;108.68;;;29.88;;
52067;SDS011;60237;52.338;21.228;2023-02-28T01:59:22;82.80;;;26.38;;
52067;SDS011;60237;52.338;21.228;2023-02-28T02:01:51;91.85;;;28.65;;
52067;SDS011;60237;52.338;21.228;2023-02-28T02:04:18;104.63;;;29.85;;
52067;SDS011;60237;52.338;21.228;2023-02-28T02:06:46;99.18;;;30.70;;
52067;SDS011;60237;52.338;21.228;2023-02-28T02:09:13;111.25;;;29.25;;
52067;SDS011;60237;52.338;21.228;2023-02-28T02:11:41;83.65;;;27.25;;
52067;SDS011;60237;52.338;21.228;2023-02-28T02:14:11;104.82;;;29.35;;
52067;SDS011;60237;52.338;21.228;2023-02-28T02:19:20;111.90;;;30.63;;
52067;SDS011;60237;52.338;21.228;2023-02-28T02:22:04;109.57;;;30.30;;
52067;SDS011;60237;52.338;21.228;2023-02-28T02:27:23;93.75;;;32.97;;
52067;SDS011;60237;52.338;21.228;2023-02-28T02:37:47;106.30;;;31.50;;
52067;SDS011;60237;52.338;21.228;2023-02-28T02:42:45;122.80;;;34.42;;
52067;SDS011;60237;52.338;21.228;2023-02-28T02:45:21;170.45;;;36.13;;
52067;SDS011;60237;52.338;21.228;2023-02-28T02:47:48;138.95;;;40.95;;
52067;SDS011;60237;52.338;21.228;2023-02-28T02:50:21;136.98;;;41.15;;
52067;SDS011;60237;52.338;21.228;2023-02-28T02:52:49;114.63;;;36.72;;
52067;SDS011;60237;52.338;21.228;2023-02-28T02:55:17;128.70;;;38.90;;
52067;SDS011;60237;52.338;21.228;2023-02-28T02:57:50;134.65;;;39.22;;
52067;SDS011;60237;52.338;21.228;2023-02-28T03:00:18;118.20;;;34.25;;
52067;SDS011;60237;52.338;21.228;2023-02-28T03:02:46;116.32;;;33.30;;
52067;SDS011;60237;52.338;21.228;2023-02-28T03:05:35;114.18;;;32.45;;
52067;SDS011;60237;52.338;21.228;2023-02-28T03:08:02;101.15;;;30.55;;
52067;SDS011;60237;52.338;21.228;2023-02-28T03:10:31;118.13;;;33.70;;
52067;SDS011;60237;52.338;21.228;2023-02-28T03:26:22;127.15;;;38.70;;
52067;SDS011;60237;52.338;21.228;2023-02-28T03:29:02;113.03;;;37.42;;
52067;SDS011;60237;52.338;21.228;2023-02-28T03:31:31;130.02;;;36.80;;
52067;SDS011;60237;52.338;21.228;2023-02-28T03:34:01;94.57;;;30.27;;
52067;SDS011;60237;52.338;21.228;2023-02-28T03:36:32;113.03;;;32.20;;
52067;SDS011;60237;52.338;21.228;2023-02-28T03:39:06;98.82;;;33.90;;
52067;SDS011;60237;52.338;21.228;2023-02-28T03:41:38;132.13;;;34.97;;
52067;SDS011;60237;52.338;21.228;2023-02-28T03:46:36;122.85;;;33.92;;
52067;SDS011;60237;52.338;21.228;2023-02-28T03:49:06;95.40;;;30.20;;
52067;SDS011;60237;52.338;21.228;2023-02-28T03:51:34;90.05;;;31.00;;
52067;SDS011;60237;52.338;21.228;2023-02-28T03:54:04;101.50;;;31.25;;
52067;SDS011;60237;52.338;21.228;2023-02-28T03:59:00;98.57;;;29.50;;
52067;SDS011;60237;52.338;21.228;2023-02-28T04:04:01;112.75;;;33.63;;
52067;SDS011;60237;52.338;21.228;2023-02-28T04:06:29;105.03;;;33.63;;
52067;SDS011;60237;52.338;21.228;2023-02-28T04:08:57;101.05;;;31.63;;
52067;SDS011;60237;52.338;21.228;2023-02-28T04:11:25;99.35;;;30.88;;
52067;SDS011;60237;52.338;21.228;2023-02-28T04:13:54;91.55;;;28.75;;
52067;SDS011;60237;52.338;21.228;2023-02-28T04:16:21;111.90;;;33.22;;
52067;SDS011;60237;52.338;21.228;2023-02-28T04:19:00;84.72;;;29.80;;
52067;SDS011;60237;52.338;21.228;2023-02-28T04:21:32;94.80;;;31.52;;
52067;SDS011;60237;52.338;21.228;2023-02-28T04:23:59;102.55;;;31.65;;
52067;SDS011;60237;52.338;21.228;2023-02-28T04:26:30;93.97;;;30.90;;
52067;SDS011;60237;52.338;21.228;2023-02-28T04:28:57;97.88;;;32.55;;
52067;SDS011;60237;52.338;21.228;2023-02-28T04:31:24;109.75;;;31.70;;
52067;SDS011;60237;52.338;21.228;2023-02-28T04:33:50;94.88;;;30.10;;
52067;SDS011;60237;52.338;21.228;2023-02-28T04:36:17;107.22;;;31.05;;
52067;SDS011;60237;52.338;21.228;2023-02-28T04:38:44;115.65;;;31.17;;
52067;SDS011;60237;52.338;21.228;2023-02-28T04:41:11;100.65;;;31.67;;
52067;SDS011;60237;52.338;21.228;2023-02-28T04:43:38;91.63;;;31.30;;
52067;SDS011;60237;52.338;21.228;2023-02-28T04:46:05;105.35;;;30.77;;
52067;SDS011;60237;52.338;21.228;2023-02-28T04:48:34;88.68;;;30.15;;
52067;SDS011;60237;52.338;21.228;2023-02-28T04:51:01;84.53;;;27.58;;
52067;SDS011;60237;52.338;21.228;2023-02-28T04:53:28;108.50;;;33.70;;
52067;SDS011;60237;52.338;21.228;2023-02-28T04:55:58;90.22;;;25.65;;
52067;SDS011;60237;52.338;21.228;2023-02-28T04:58:24;80.88;;;24.80;;
52067;SDS011;60237;52.338;21.228;2023-02-28T05:00:51;110.80;;;30.52;;
52067;SDS011;60237;52.338;21.228;2023-02-28T05:03:19;94.10;;;26.08;;
52067;SDS011;60237;52.338;21.228;2023-02-28T05:05:46;115.72;;;30.17;;
52067;SDS011;60237;52.338;21.228;2023-02-28T05:08:13;113.80;;;28.85;;
52067;SDS011;60237;52.338;21.228;2023-02-28T05:10:40;89.88;;;27.92;;
52067;SDS011;60237;52.338;21.228;2023-02-28T05:13:06;71.55;;;24.00;;
52067;SDS011;60237;52.338;21.228;2023-02-28T05:15:33;110.45;;;29.23;;
52067;SDS011;60237;52.338;21.228;2023-02-28T05:18:01;82.57;;;27.17;;
52067;SDS011;60237;52.338;21.228;2023-02-28T05:20:27;86.70;;;28.33;;
52067;SDS011;60237;52.338;21.228;2023-02-28T05:22:53;110.88;;;29.13;;
52067;SDS011;60237;52.338;21.228;2023-02-28T05:25:20;88.43;;;26.90;;
52067;SDS011;60237;52.338;21.228;2023-02-28T05:27:50;106.05;;;30.20;;
52067;SDS011;60237;52.338;21.228;2023-02-28T05:30:17;118.85;;;29.35;;
52067;SDS011;60237;52.338;21.228;2023-02-28T05:32:43;111.15;;;29.15;;
52067;SDS011;60237;52.338;21.228;2023-02-28T05:35:10;114.85;;;28.77;;
52067;SDS011;60237;52.338;21.228;2023-02-28T05:37:37;115.18;;;30.27;;
52067;SDS011;60237;52.338;21.228;2023-02-28T05:40:04;111.32;;;31.80;;
52067;SDS011;60237;52.338;21.228;2023-02-28T05:42:37;104.20;;;30.23;;
52067;SDS011;60237;52.338;21.228;2023-02-28T05:45:04;108.80;;;31.10;;
52067;SDS011;60237;52.338;21.228;2023-02-28T05:47:30;109.85;;;32.33;;
52067;SDS011;60237;52.338;21.228;2023-02-28T05:49:57;106.57;;;30.02;;
52067;SDS011;60237;52.338;21.228;2023-02-28T05:52:23;118.78;;;28.85;;
52067;SDS011;60237;52.338;21.228;2023-02-28T05:54:50;122.43;;;31.77;;
52067;SDS011;60237;52.338;21.228;2023-02-28T05:57:16;108.05;;;30.75;;
52067;SDS011;60237;52.338;21.228;2023-02-28T05:59:50;108.47;;;27.38;;
52067;SDS011;60237;52.338;21.228;2023-02-28T06:02:16;108.40;;;30.60;;
52067;SDS011;60237;52.338;21.228;2023-02-28T06:04:43;95.95;;;28.40;;
52067;SDS011;60237;52.338;21.228;2023-02-28T06:07:10;85.38;;;25.92;;
52067;SDS011;60237;52.338;21.228;2023-02-28T06:09:37;74.18;;;23.85;;
52067;SDS011;60237;52.338;21.228;2023-02-28T06:12:03;72.13;;;27.05;;
52067;SDS011;60237;52.338;21.228;2023-02-28T06:14:32;114.15;;;29.52;;
52067;SDS011;60237;52.338;21.228;2023-02-28T06:16:59;110.07;;;37.80;;
52067;SDS011;60237;52.338;21.228;2023-02-28T06:19:26;124.53;;;44.60;;
52067;SDS011;60237;52.338;21.228;2023-02-28T06:21:53;138.73;;;47.83;;
52067;SDS011;60237;52.338;21.228;2023-02-28T06:24:20;116.97;;;41.88;;
52067;SDS011;60237;52.338;21.228;2023-02-28T06:26:47;126.03;;;43.17;;
52067;SDS011;60237;52.338;21.228;2023-02-28T06:29:14;132.95;;;46.53;;
52067;SDS011;60237;52.338;21.228;2023-02-28T06:31:45;128.70;;;45.30;;
52067;SDS011;60237;52.338;21.228;2023-02-28T06:34:11;132.23;;;48.83;;
52067;SDS011;60237;52.338;21.228;2023-02-28T06:36:39;135.95;;;47.58;;
52067;SDS011;60237;52.338;21.228;2023-02-28T06:39:06;128.50;;;45.63;;
52067;SDS011;60237;52.338;21.228;2023-02-28T06:41:33;186.70;;;59.05;;
52067;SDS011;60237;52.338;21.228;2023-02-28T06:44:20;231.02;;;67.25;;
52067;SDS011;60237;52.338;21.228;2023-02-28T06:46:47;206.73;;;63.47;;
52067;SDS011;60237;52.338;21.228;2023-02-28T06:49:14;208.75;;;63.60;;
52067;SDS011;60237;52.338;21.228;2023-02-28T06:51:42;163.43;;;54.45;;
52067;SDS011;60237;52.338;21.228;2023-02-28T06:54:11;194.48;;;75.18;;
52067;SDS011;60237;52.338;21.228;2023-02-28T06:56:38;413.88;;;148.95;;
52067;SDS011;60237;52.338;21.228;2023-02-28T06:59:04;190.05;;;74.60;;
52067;SDS011;60237;52.338;21.228;2023-02-28T07:01:31;189.60;;;75.38;;
52067;SDS011;60237;52.338;21.228;2023-02-28T07:04:00;228.50;;;85.03;;
52067;SDS011;60237;52.338;21.228;2023-02-28T07:06:27;228.68;;;87.50;;
52067;SDS011;60237;52.338;21.228;2023-02-28T07:08:53;176.77;;;72.55;;
52067;SDS011;60237;52.338;21.228;2023-02-28T07:11:21;186.60;;;66.38;;
52067;SDS011;60237;52.338;21.228;2023-02-28T07:13:55;160.02;;;56.78;;
52067;SDS011;60237;52.338;21.228;2023-02-28T07:16:22;167.63;;;57.97;;
52067;SDS011;60237;52.338;21.228;2023-02-28T07:18:51;152.98;;;59.13;;
52067;SDS011;60237;52.338;21.228;2023-02-28T07:21:18;150.68;;;57.58;;
52067;SDS011;60237;52.338;21.228;2023-02-28T07:23:44;164.70;;;58.05;;
52067;SDS011;60237;52.338;21.228;2023-02-28T07:26:12;158.93;;;59.75;;
52067;SDS011;60237;52.338;21.228;2023-02-28T07:28:41;132.35;;;53.30;;
52067;SDS011;60237;52.338;21.228;2023-02-28T07:31:08;138.63;;;51.42;;
52067;SDS011;60237;52.338;21.228;2023-02-28T07:33:36;99.35;;;38.88;;
52067;SDS011;60237;52.338;21.228;2023-02-28T07:36:03;64.28;;;20.45;;
52067;SDS011;60237;52.338;21.228;2023-02-28T07:38:33;74.65;;;22.55;;
52067;SDS011;60237;52.338;21.228;2023-02-28T07:41:00;114.05;;;26.50;;
52067;SDS011;60237;52.338;21.228;2023-02-28T07:43:27;29.42;;;9.02;;
52067;SDS011;60237;52.338;21.228;2023-02-28T07:45:53;60.78;;;13.43;;
52067;SDS011;60237;52.338;21.228;2023-02-28T07:48:19;53.17;;;14.98;;
52067;SDS011;60237;52.338;21.228;2023-02-28T07:50:53;87.85;;;19.25;;
52067;SDS011;60237;52.338;21.228;2023-02-28T07:53:21;59.90;;;16.35;;
52067;SDS011;60237;52.338;21.228;2023-02-28T07:55:48;52.50;;;15.85;;
52067;SDS011;60237;52.338;21.228;2023-02-28T07:58:15;72.70;;;19.98;;
52067;SDS011;60237;52.338;21.228;2023-02-28T08:00:41;61.28;;;16.25;;
52067;SDS011;60237;52.338;21.228;2023-02-28T08:03:10;51.45;;;14.82;;
52067;SDS011;60237;52.338;21.228;2023-02-28T08:05:38;51.08;;;14.68;;
52067;SDS011;60237;52.338;21.228;2023-02-28T08:08:05;45.42;;;13.25;;
52067;SDS011;60237;52.338;21.228;2023-02-28T08:10:32;34.83;;;11.73;;
52067;SDS011;60237;52.338;21.228;2023-02-28T08:12:58;46.47;;;13.25;;
52067;SDS011;60237;52.338;21.228;2023-02-28T08:15:25;57.35;;;13.45;;
52067;SDS011;60237;52.338;21.228;2023-02-28T08:17:52;54.22;;;13.38;;
52067;SDS011;60237;52.338;21.228;2023-02-28T08:20:18;53.90;;;13.73;;
52067;SDS011;60237;52.338;21.228;2023-02-28T08:22:45;76.60;;;15.80;;
52067;SDS011;60237;52.338;21.228;2023-02-28T08:25:12;40.15;;;12.55;;
52067;SDS011;60237;52.338;21.228;2023-02-28T08:27:38;44.25;;;12.70;;
52067;SDS011;60237;52.338;21.228;2023-02-28T08:30:05;56.20;;;12.68;;
52067;SDS011;60237;52.338;21.228;2023-02-28T08:32:32;74.55;;;13.75;;
52067;SDS011;60237;52.338;21.228;2023-02-28T08:34:59;67.18;;;13.05;;
52067;SDS011;60237;52.338;21.228;2023-02-28T08:37:26;75.32;;;14.65;;
52067;SDS011;60237;52.338;21.228;2023-02-28T08:39:52;68.40;;;13.95;;
52067;SDS011;60237;52.338;21.228;2023-02-28T08:42:22;46.58;;;13.90;;
52067;SDS011;60237;52.338;21.228;2023-02-28T08:44:48;59.97;;;14.23;;
52067;SDS011;60237;52.338;21.228;2023-02-28T08:47:15;38.33;;;12.32;;
52067;SDS011;60237;52.338;21.228;2023-02-28T08:49:41;40.85;;;12.98;;
52067;SDS011;60237;52.338;21.228;2023-02-28T08:52:08;47.58;;;12.93;;
52067;SDS011;60237;52.338;21.228;2023-02-28T08:54:35;41.97;;;13.57;;
52067;SDS011;60237;52.338;21.228;2023-02-28T08:57:02;55.58;;;14.13;;
52067;SDS011;60237;52.338;21.228;2023-02-28T08:59:29;55.65;;;14.38;;
52067;SDS011;60237;52.338;21.228;2023-02-28T09:01:55;45.00;;;13.82;;
52067;SDS011;60237;52.338;21.228;2023-02-28T09:04:22;53.83;;;14.57;;
52067;SDS011;60237;52.338;21.228;2023-02-28T09:06:50;48.92;;;14.85;;
52067;SDS011;60237;52.338;21.228;2023-02-28T09:09:17;41.85;;;14.02;;
52067;SDS011;60237;52.338;21.228;2023-02-28T09:11:43;56.45;;;15.55;;
52067;SDS011;60237;52.338;21.228;2023-02-28T09:14:10;59.13;;;15.90;;
52067;SDS011;60237;52.338;21.228;2023-02-28T09:16:36;41.88;;;13.20;;
52067;SDS011;60237;52.338;21.228;2023-02-28T09:19:03;43.10;;;13.90;;
52067;SDS011;60237;52.338;21.228;2023-02-28T09:21:30;58.65;;;14.85;;
52067;SDS011;60237;52.338;21.228;2023-02-28T09:23:56;57.10;;;15.15;;
52067;SDS011;60237;52.338;21.228;2023-02-28T09:26:24;50.38;;;13.50;;
52067;SDS011;60237;52.338;21.228;2023-02-28T09:28:51;48.88;;;12.75;;
52067;SDS011;60237;52.338;21.228;2023-02-28T09:31:19;36.72;;;11.40;;
52067;SDS011;60237;52.338;21.228;2023-02-28T09:33:49;57.55;;;12.68;;
52067;SDS011;60237;52.338;21.228;2023-02-28T09:36:17;65.53;;;14.00;;
52067;SDS011;60237;52.338;21.228;2023-02-28T09:38:43;58.08;;;15.27;;
52067;SDS011;60237;52.338;21.228;2023-02-28T09:41:14;34.90;;;10.48;;
52067;SDS011;60237;52.338;21.228;2023-02-28T09:43:43;49.08;;;12.50;;
52067;SDS011;60237;52.338;21.228;2023-02-28T09:48:55;46.40;;;12.95;;
52067;SDS011;60237;52.338;21.228;2023-02-28T09:53:57;70.07;;;14.80;;
52067;SDS011;60237;52.338;21.228;2023-02-28T09:56:36;50.17;;;13.32;;
52067;SDS011;60237;52.338;21.228;2023-02-28T10:01:37;41.05;;;11.77;;
52067;SDS011;60237;52.338;21.228;2023-02-28T10:06:58;37.78;;;11.23;;
52067;SDS011;60237;52.338;21.228;2023-02-28T10:09:27;55.75;;;13.45;;
52067;SDS011;60237;52.338;21.228;2023-02-28T10:11:57;44.63;;;12.35;;
52067;SDS011;60237;52.338;21.228;2023-02-28T10:14:27;52.13;;;12.30;;
52067;SDS011;60237;52.338;21.228;2023-02-28T10:17:14;30.75;;;10.13;;
52067;SDS011;60237;52.338;21.228;2023-02-28T10:22:25;40.90;;;11.88;;
52067;SDS011;60237;52.338;21.228;2023-02-28T10:24:55;44.40;;;12.25;;
52067;SDS011;60237;52.338;21.228;2023-02-28T10:27:26;39.47;;;11.95;;
52067;SDS011;60237;52.338;21.228;2023-02-28T10:29:55;64.13;;;15.10;;
52067;SDS011;60237;52.338;21.228;2023-02-28T10:34:51;44.03;;;13.20;;
52067;SDS011;60237;52.338;21.228;2023-02-28T10:37:18;51.40;;;14.55;;
52067;SDS011;60237;52.338;21.228;2023-02-28T10:39:46;41.22;;;13.38;;
52067;SDS011;60237;52.338;21.228;2023-02-28T10:42:20;36.95;;;11.77;;
52067;SDS011;60237;52.338;21.228;2023-02-28T10:44:47;70.60;;;14.80;;
52067;SDS011;60237;52.338;21.228;2023-02-28T10:47:16;32.22;;;11.77;;
52067;SDS011;60237;52.338;21.228;2023-02-28T10:49:47;42.35;;;11.48;;
52067;SDS011;60237;52.338;21.228;2023-02-28T10:52:14;40.60;;;11.45;;
52067;SDS011;60237;52.338;21.228;2023-02-28T10:55:15;39.70;;;12.68;;
52067;SDS011;60237;52.338;21.228;2023-02-28T10:57:42;38.50;;;11.60;;
52067;SDS011;60237;52.338;21.228;2023-02-28T11:00:16;40.50;;;12.35;;
52067;SDS011;60237;52.338;21.228;2023-02-28T11:02:43;68.45;;;14.68;;
52067;SDS011;60237;52.338;21.228;2023-02-28T11:07:53;64.45;;;14.40;;
52067;SDS011;60237;52.338;21.228;2023-02-28T11:10:30;58.38;;;13.77;;
52067;SDS011;60237;52.338;21.228;2023-02-28T11:13:00;60.78;;;13.65;;
52067;SDS011;60237;52.338;21.228;2023-02-28T11:15:30;42.53;;;11.10;;
52067;SDS011;60237;52.338;21.228;2023-02-28T11:18:01;41.35;;;11.95;;
52067;SDS011;60237;52.338;21.228;2023-02-28T11:20:29;65.10;;;13.65;;
52067;SDS011;60237;52.338;21.228;2023-02-28T11:22:57;43.70;;;11.45;;
52067;SDS011;60237;52.338;21.228;2023-02-28T11:25:25;45.15;;;12.10;;
52067;SDS011;60237;52.338;21.228;2023-02-28T11:27:53;71.88;;;14.77;;
52067;SDS011;60237;52.338;21.228;2023-02-28T11:32:53;50.28;;;13.15;;
52067;SDS011;60237;52.338;21.228;2023-02-28T11:35:27;40.08;;;11.63;;
52067;SDS011;60237;52.338;21.228;2023-02-28T11:37:56;40.60;;;11.30;;
52067;SDS011;60237;52.338;21.228;2023-02-28T11:48:21;41.58;;;12.55;;
52067;SDS011;60237;52.338;21.228;2023-02-28T11:51:02;70.05;;;14.00;;
52067;SDS011;60237;52.338;21.228;2023-02-28T11:56:17;57.47;;;12.70;;
52067;SDS011;60237;52.338;21.228;2023-02-28T12:12:15;64.05;;;12.88;;
52067;SDS011;60237;52.338;21.228;2023-02-28T12:17:35;33.85;;;9.75;;
52067;SDS011;60237;52.338;21.228;2023-02-28T12:20:23;30.70;;;10.50;;
52067;SDS011;60237;52.338;21.228;2023-02-28T12:25:22;31.55;;;9.70;;
52067;SDS011;60237;52.338;21.228;2023-02-28T12:27:50;64.18;;;12.98;;
52067;SDS011;60237;52.338;21.228;2023-02-28T12:30:21;41.22;;;11.63;;
52067;SDS011;60237;52.338;21.228;2023-02-28T12:32:49;47.38;;;11.55;;
52067;SDS011;60237;52.338;21.228;2023-02-28T12:35:19;38.70;;;12.00;;
52067;SDS011;60237;52.338;21.228;2023-02-28T12:40:25;51.13;;;10.02;;
52067;SDS011;60237;52.338;21.228;2023-02-28T12:42:54;40.55;;;9.80;;
52067;SDS011;60237;52.338;21.228;2023-02-28T12:45:24;29.80;;;9.57;;
52067;SDS011;60237;52.338;21.228;2023-02-28T12:47:59;56.92;;;11.75;;
52067;SDS011;60237;52.338;21.228;2023-02-28T12:50:26;41.08;;;10.88;;
52067;SDS011;60237;52.338;21.228;2023-02-28T12:53:03;45.78;;;11.63;;
52067;SDS011;60237;52.338;21.228;2023-02-28T12:55:37;39.03;;;10.40;;
52067;SDS011;60237;52.338;21.228;2023-02-28T12:58:10;53.38;;;15.50;;
52067;SDS011;60237;52.338;21.228;2023-02-28T13:00:45;29.17;;;9.50;;
52067;SDS011;60237;52.338;21.228;2023-02-28T13:10:53;48.17;;;11.23;;
52067;SDS011;60237;52.338;21.228;2023-02-28T13:13:21;30.60;;;8.77;;
52067;SDS011;60237;52.338;21.228;2023-02-28T13:18:40;39.45;;;9.23;;
52067;SDS011;60237;52.338;21.228;2023-02-28T13:21:09;40.60;;;10.95;;
52067;SDS011;60237;52.338;21.228;2023-02-28T13:34:21;53.38;;;12.50;;
52067;SDS011;60237;52.338;21.228;2023-02-28T13:36:47;32.90;;;8.95;;
52067;SDS011;60237;52.338;21.228;2023-02-28T13:47:48;34.13;;;9.23;;
52067;SDS011;60237;52.338;21.228;2023-02-28T13:50:21;40.53;;;10.45;;
52067;SDS011;60237;52.338;21.228;2023-02-28T13:52:53;43.42;;;10.30;;
52067;SDS011;60237;52.338;21.228;2023-02-28T13:55:24;35.57;;;9.20;;
52067;SDS011;60237;52.338;21.228;2023-02-28T14:00:23;62.78;;;12.48;;
52067;SDS011;60237;52.338;21.228;2023-02-28T14:05:28;45.25;;;10.02;;
52067;SDS011;60237;52.338;21.228;2023-02-28T14:07:59;46.60;;;10.30;;
52067;SDS011;60237;52.338;21.228;2023-02-28T14:10:31;39.38;;;10.43;;
52067;SDS011;60237;52.338;21.228;2023-02-28T14:13:45;47.55;;;11.57;;
52067;SDS011;60237;52.338;21.228;2023-02-28T14:20:41;44.53;;;11.38;;
52067;SDS011;60237;52.338;21.228;2023-02-28T14:23:26;31.25;;;10.23;;
52067;SDS011;60237;52.338;21.228;2023-02-28T14:26:02;42.25;;;10.73;;
52067;SDS011;60237;52.338;21.228;2023-02-28T14:31:37;37.00;;;10.75;;
52067;SDS011;60237;52.338;21.228;2023-02-28T14:36:45;29.40;;;8.68;;
52067;SDS011;60237;52.338;21.228;2023-02-28T14:39:13;38.78;;;10.23;;
52067;SDS011;60237;52.338;21.228;2023-02-28T14:41:41;36.97;;;10.27;;
52067;SDS011;60237;52.338;21.228;2023-02-28T14:46:40;49.88;;;11.68;;
52067;SDS011;60237;52.338;21.228;2023-02-28T14:49:21;27.83;;;10.30;;
52067;SDS011;60237;52.338;21.228;2023-02-28T14:51:49;41.42;;;10.88;;
52067;SDS011;60237;52.338;21.228;2023-02-28T14:54:16;45.88;;;12.05;;
52067;SDS011;60237;52.338;21.228;2023-02-28T14:56:48;51.20;;;12.68;;
52067;SDS011;60237;52.338;21.228;2023-02-28T14:59:33;55.17;;;13.52;;
52067;SDS011;60237;52.338;21.228;2023-02-28T15:02:16;36.97;;;11.55;;
52067;SDS011;60237;52.338;21.228;2023-02-28T15:04:43;32.30;;;11.10;;
52067;SDS011;60237;52.338;21.228;2023-02-28T15:07:10;29.30;;;9.85;;
52067;SDS011;60237;52.338;21.228;2023-02-28T15:09:37;38.72;;;10.27;;
52067;SDS011;60237;52.338;21.228;2023-02-28T15:12:04;42.17;;;10.93;;
52067;SDS011;60237;52.338;21.228;2023-02-28T15:14:30;47.03;;;10.80;;
52067;SDS011;60237;52.338;21.228;2023-02-28T15:17:06;35.53;;;9.68;;
52067;SDS011;60237;52.338;21.228;2023-02-28T15:19:35;31.88;;;9.57;;
52067;SDS011;60237;52.338;21.228;2023-02-28T15:22:04;24.98;;;9.43;;
52067;SDS011;60237;52.338;21.228;2023-02-28T15:24:35;57.75;;;12.48;;
52067;SDS011;60237;52.338;21.228;2023-02-28T15:29:59;43.05;;;11.57;;
52067;SDS011;60237;52.338;21.228;2023-02-28T15:32:31;54.33;;;12.38;;
52067;SDS011;60237;52.338;21.228;2023-02-28T15:34:58;67.53;;;18.95;;
52067;SDS011;60237;52.338;21.228;2023-02-28T15:38:12;54.47;;;17.05;;
52067;SDS011;60237;52.338;21.228;2023-02-28T15:40:22;63.65;;;17.58;;
52067;SDS011;60237;52.338;21.228;2023-02-28T15:43:57;37.80;;;12.82;;
52067;SDS011;60237;52.338;21.228;2023-02-28T15:45:49;48.42;;;13.63;;
52067;SDS011;60237;52.338;21.228;2023-02-28T15:50:43;77.65;;;20.10;;
52067;SDS011;60237;52.338;21.228;2023-02-28T15:53:13;71.28;;;23.08;;
52067;SDS011;60237;52.338;21.228;2023-02-28T15:55:40;67.30;;;23.08;;
52067;SDS011;60237;52.338;21.228;2023-02-28T15:58:08;73.18;;;21.75;;
52067;SDS011;60237;52.338;21.228;2023-02-28T16:00:38;75.40;;;24.85;;
52067;SDS011;60237;52.338;21.228;2023-02-28T16:03:24;75.53;;;25.08;;
52067;SDS011;60237;52.338;21.228;2023-02-28T16:08:36;122.72;;;36.30;;
52067;SDS011;60237;52.338;21.228;2023-02-28T16:11:02;85.85;;;34.63;;
52067;SDS011;60237;52.338;21.228;2023-02-28T16:13:29;91.50;;;32.45;;
52067;SDS011;60237;52.338;21.228;2023-02-28T16:15:55;114.85;;;34.58;;
52067;SDS011;60237;52.338;21.228;2023-02-28T16:18:21;106.00;;;28.05;;
52067;SDS011;60237;52.338;21.228;2023-02-28T16:20:48;68.68;;;20.15;;
52067;SDS011;60237;52.338;21.228;2023-02-28T16:23:15;63.53;;;22.83;;
52067;SDS011;60237;52.338;21.228;2023-02-28T16:25:42;82.53;;;25.33;;
52067;SDS011;60237;52.338;21.228;2023-02-28T16:28:20;62.45;;;22.55;;
52067;SDS011;60237;52.338;21.228;2023-02-28T16:30:47;83.93;;;24.20;;
52067;SDS011;60237;52.338;21.228;2023-02-28T16:33:13;50.00;;;20.83;;
52067;SDS011;60237;52.338;21.228;2023-02-28T16:35:40;60.80;;;22.35;;
52067;SDS011;60237;52.338;21.228;2023-02-28T16:38:07;80.40;;;24.42;;
52067;SDS011;60237;52.338;21.228;2023-02-28T16:40:34;109.57;;;27.50;;
52067;SDS011;60237;52.338;21.228;2023-02-28T16:43:01;90.43;;;27.50;;
52067;SDS011;60237;52.338;21.228;2023-02-28T16:45:30;116.03;;;35.83;;